createdAt,value
2022-08-16T00:01:40.823Z,22.00
2022-08-16T00:06:44.030Z,20.40
2022-08-16T00:11:45.979Z,19.30
2022-08-16T00:17:05.553Z,20.03
2022-08-16T00:22:13.659Z,21.83
2022-08-16T00:27:17.368Z,21.10
2022-08-16T00:32:19.280Z,20.97
2022-08-16T00:37:24.504Z,24.27
2022-08-16T00:42:30.227Z,26.43
2022-08-16T00:47:33.410Z,25.37
2022-08-16T00:52:35.931Z,26.77
2022-08-16T00:57:58.587Z,20.43
2022-08-16T01:03:00.985Z,23.70
2022-08-16T01:08:35.142Z,22.07
2022-08-16T01:13:26.670Z,22.00
2022-08-16T01:18:40.508Z,26.23
2022-08-16T01:23:58.410Z,23.60
2022-08-16T01:29:06.619Z,22.30
2022-08-16T01:34:25.321Z,20.40
2022-08-16T01:39:29.393Z,19.73
2022-08-16T01:44:37.825Z,24.47
2022-08-16T01:50:40.660Z,22.70
2022-08-16T01:55:04.442Z,22.00
2022-08-16T02:00:19.277Z,22.27
2022-08-16T02:05:23.500Z,22.23
2022-08-16T02:10:25.884Z,21.43
2022-08-16T02:15:28.891Z,22.70
2022-08-16T02:20:33.153Z,24.10
2022-08-16T02:25:52.530Z,22.10
2022-08-16T02:30:57.929Z,21.93
2022-08-16T02:36:00.075Z,22.40
2022-08-16T02:41:09.753Z,20.63
2022-08-16T02:46:13.866Z,26.10
2022-08-16T02:51:17.054Z,22.27
2022-08-16T02:56:20.732Z,21.10
2022-08-16T03:01:36.734Z,21.40
2022-08-16T03:06:47.945Z,20.03
2022-08-16T03:12:10.086Z,25.60
2022-08-16T03:17:18.538Z,25.73
2022-08-16T03:22:29.001Z,21.70
2022-08-16T03:27:33.951Z,29.00
2022-08-16T03:32:38.604Z,22.80
2022-08-16T03:38:01.803Z,22.97
2022-08-16T03:43:20.792Z,22.80
2022-08-16T03:48:36.810Z,25.50
2022-08-16T03:54:01.353Z,23.40
2022-08-16T03:59:05.874Z,20.63
2022-08-16T04:04:32.426Z,18.50
2022-08-16T04:09:35.180Z,19.53
2022-08-16T04:14:37.686Z,22.60
2022-08-16T04:19:51.651Z,19.80
2022-08-16T04:24:59.363Z,20.00
2022-08-16T04:30:13.477Z,22.90
2022-08-16T04:35:34.729Z,27.63
2022-08-16T04:40:36.785Z,26.20
2022-08-16T04:45:39.768Z,19.10
2022-08-16T04:50:49.198Z,23.47
2022-08-16T04:55:54.845Z,21.93
2022-08-16T05:01:00.516Z,20.70
2022-08-16T05:06:05.199Z,18.80
2022-08-16T05:11:10.080Z,17.63
2022-08-16T05:16:20.021Z,20.80
2022-08-16T05:21:28.362Z,20.90
2022-08-16T05:26:40.782Z,19.90
2022-08-16T05:31:48.224Z,17.80
2022-08-16T05:36:57.302Z,15.83
2022-08-16T05:42:05.965Z,16.37
2022-08-16T05:47:08.391Z,17.97
2022-08-16T05:52:13.809Z,19.33
2022-08-16T05:57:20.655Z,18.23
2022-08-16T06:02:29.000Z,17.93
2022-08-16T06:07:32.418Z,15.90
2022-08-16T06:12:55.850Z,19.63
2022-08-16T06:17:59.188Z,13.67
2022-08-16T06:23:11.729Z,14.03
2022-08-16T06:28:36.443Z,18.97
2022-08-16T06:33:44.573Z,17.57
2022-08-16T06:38:52.290Z,13.83
2022-08-16T06:44:20.700Z,15.87
2022-08-16T06:49:24.324Z,12.60
2022-08-16T06:54:26.009Z,15.27
2022-08-16T06:59:29.083Z,14.77
2022-08-16T07:04:37.094Z,16.30
2022-08-16T07:09:54.988Z,12.57
2022-08-16T07:15:00.733Z,11.07
2022-08-16T07:20:35.070Z,14.80
2022-08-16T07:25:31.242Z,17.93
2022-08-16T07:30:39.420Z,10.80
2022-08-16T07:36:07.456Z,12.60
2022-08-16T07:41:15.086Z,13.00
2022-08-16T07:46:37.570Z,16.47
2022-08-16T07:51:49.883Z,14.50
2022-08-16T07:56:57.781Z,15.17
2022-08-16T08:02:00.739Z,13.97
2022-08-16T08:07:02.589Z,13.70
2022-08-16T08:12:31.427Z,10.60
2022-08-16T08:17:42.151Z,13.73
2022-08-16T08:22:48.965Z,16.50
2022-08-16T08:27:51.221Z,10.73
2022-08-16T08:33:01.179Z,13.70
2022-08-16T08:38:16.912Z,9.83
2022-08-16T08:43:41.886Z,16.60
2022-08-16T08:48:46.368Z,8.80
2022-08-16T08:54:07.052Z,9.50
2022-08-16T08:59:20.490Z,8.63
2022-08-16T09:04:26.976Z,17.33
2022-08-16T09:09:33.554Z,13.43
2022-08-16T09:14:38.611Z,8.70
2022-08-16T09:19:41.289Z,10.17
2022-08-16T09:24:51.678Z,11.33
2022-08-16T09:30:00.083Z,11.07
2022-08-16T09:35:02.863Z,10.40
2022-08-16T09:40:31.949Z,11.37
2022-08-16T09:45:28.997Z,9.47
2022-08-16T09:50:36.743Z,11.10
2022-08-16T09:55:44.633Z,6.30
2022-08-16T10:00:46.625Z,6.80
2022-08-16T10:05:48.816Z,14.57
2022-08-16T10:11:09.568Z,6.27
2022-08-16T10:21:20.254Z,6.40
2022-08-16T10:27:19.944Z,6.80
2022-08-16T10:31:46.704Z,6.33
2022-08-16T10:36:55.641Z,6.53
2022-08-16T10:41:57.313Z,8.33
2022-08-16T10:47:00.757Z,5.20
2022-08-16T10:52:18.875Z,6.57
2022-08-16T10:57:24.646Z,4.93
2022-08-16T11:03:37.432Z,5.10
2022-08-16T11:07:53.461Z,8.30
2022-08-16T11:12:56.439Z,8.13
2022-08-16T11:23:20.045Z,4.60
2022-08-16T11:33:52.735Z,5.20
2022-08-16T11:38:57.079Z,5.07
2022-08-16T11:44:00.127Z,4.70
2022-08-16T11:49:08.695Z,5.13
2022-08-16T11:54:20.499Z,7.27
2022-08-16T11:59:24.457Z,5.00
2022-08-16T12:04:31.229Z,4.10
2022-08-16T12:09:32.980Z,8.13
2022-08-16T12:14:35.317Z,10.10
2022-08-16T12:19:38.391Z,5.07
2022-08-16T12:24:40.052Z,4.85
2022-08-16T12:29:41.735Z,5.85
2022-08-16T12:34:48.019Z,8.80
2022-08-16T12:39:56.047Z,5.70
2022-08-16T12:44:57.856Z,6.07
2022-08-16T12:50:00.039Z,5.50
2022-08-16T12:55:02.190Z,5.03
2022-08-16T13:00:26.896Z,7.07
2022-08-16T13:05:45.065Z,5.18
2022-08-16T13:10:57.282Z,4.28
2022-08-16T13:16:02.215Z,5.57
2022-08-16T13:21:06.755Z,4.10
2022-08-16T13:26:08.443Z,7.30
2022-08-16T13:31:11.207Z,5.72
2022-08-16T13:36:38.928Z,4.57
2022-08-16T13:41:38.978Z,4.47
2022-08-16T13:46:41.686Z,9.38
2022-08-16T13:51:43.876Z,8.23
2022-08-16T13:56:45.978Z,4.63
2022-08-16T14:01:54.968Z,4.97
2022-08-16T14:06:58.275Z,4.90
2022-08-16T14:12:00.671Z,6.82
2022-08-16T14:17:02.650Z,4.35
2022-08-16T14:22:14.572Z,5.03
2022-08-16T14:27:21.936Z,4.47
2022-08-16T14:32:32.518Z,4.78
2022-08-16T14:37:36.006Z,6.30
2022-08-16T14:42:37.740Z,3.97
2022-08-16T14:47:39.427Z,5.18
2022-08-16T14:53:03.657Z,3.45
2022-08-16T14:58:05.688Z,2.95
2022-08-16T15:03:09.932Z,7.90
2022-08-16T15:08:11.796Z,3.08
2022-08-16T15:13:13.515Z,6.95
2022-08-16T15:18:23.440Z,2.55
2022-08-16T15:23:31.510Z,3.25
2022-08-16T15:28:38.720Z,3.22
2022-08-16T15:33:56.445Z,3.40
2022-08-16T15:39:06.879Z,4.75
2022-08-16T15:44:23.611Z,4.22
2022-08-16T15:49:37.498Z,6.25
2022-08-16T15:54:52.415Z,3.63
2022-08-16T15:59:57.749Z,4.82
2022-08-16T16:05:17.041Z,4.28
2022-08-16T16:10:18.807Z,9.07
2022-08-16T16:15:23.251Z,8.75
2022-08-16T16:20:27.921Z,4.82
2022-08-16T16:25:30.059Z,4.20
2022-08-16T16:30:34.498Z,5.20
2022-08-16T16:35:46.810Z,13.40
2022-08-16T16:40:53.945Z,8.73
2022-08-16T16:45:56.271Z,11.45
2022-08-16T16:50:58.345Z,4.70
2022-08-16T16:56:00.002Z,8.40
2022-08-16T17:01:01.745Z,6.53
2022-08-16T17:06:09.093Z,6.85
2022-08-16T17:11:13.836Z,4.40
2022-08-16T17:16:18.950Z,5.88
2022-08-16T17:21:21.607Z,9.40
2022-08-16T17:26:29.529Z,7.63
2022-08-16T17:31:40.865Z,4.90
2022-08-16T17:36:50.471Z,6.90
2022-08-16T17:41:57.065Z,6.30
2022-08-16T17:46:58.728Z,7.83
2022-08-16T17:52:00.496Z,6.53
2022-08-16T17:57:02.184Z,9.70
2022-08-16T18:02:42.381Z,5.10
2022-08-16T18:07:26.623Z,8.37
2022-08-16T18:12:44.502Z,8.90
2022-08-16T18:17:53.029Z,6.87
2022-08-16T18:22:54.742Z,12.10
2022-08-16T18:27:56.409Z,7.50
2022-08-16T18:32:58.085Z,6.43
2022-08-16T18:37:59.750Z,10.27
2022-08-16T18:43:06.360Z,7.37
2022-08-16T18:48:08.465Z,6.67
2022-08-16T18:53:11.564Z,6.17
2022-08-16T18:58:14.187Z,12.33
2022-08-16T19:03:22.065Z,8.40
2022-08-16T19:08:23.760Z,9.47
2022-08-16T19:13:26.726Z,11.93
2022-08-16T19:18:28.716Z,8.20
2022-08-16T19:23:38.861Z,11.93
2022-08-16T19:28:51.021Z,14.73
2022-08-16T19:34:01.420Z,8.57
2022-08-16T19:39:06.082Z,7.50
2022-08-16T19:44:07.793Z,9.87
2022-08-16T19:49:09.524Z,11.43
2022-08-16T19:54:17.848Z,7.97
2022-08-16T19:59:22.415Z,7.00
2022-08-16T20:04:41.541Z,20.50
2022-08-16T20:09:43.238Z,11.47
2022-08-16T20:14:44.964Z,12.17
2022-08-16T20:19:46.767Z,11.13
2022-08-16T20:24:49.255Z,15.97
2022-08-16T20:29:50.931Z,10.40
2022-08-16T20:34:53.695Z,9.00
2022-08-16T20:40:28.231Z,13.60
2022-08-16T20:45:17.048Z,9.50
2022-08-16T20:50:18.883Z,14.50
2022-08-16T20:55:20.551Z,7.93
2022-08-16T21:00:22.351Z,14.60
2022-08-16T21:05:31.204Z,10.93
2022-08-16T21:10:33.668Z,13.57
2022-08-16T21:15:36.049Z,10.33
2022-08-16T21:20:37.853Z,10.47
2022-08-16T21:25:46.657Z,8.50
2022-08-16T21:31:00.259Z,12.27
2022-08-16T21:36:01.949Z,9.97
2022-08-16T21:41:04.272Z,10.07
2022-08-16T21:46:06.936Z,9.40
2022-08-16T21:51:11.350Z,9.60
2022-08-16T21:56:17.167Z,9.83
2022-08-16T22:01:19.157Z,11.57
2022-08-16T22:06:20.849Z,10.37
2022-08-16T22:11:23.361Z,9.30
2022-08-16T22:16:25.807Z,10.67
2022-08-16T22:21:27.478Z,12.13
2022-08-16T22:26:31.831Z,13.13
2022-08-16T22:31:34.443Z,11.90
2022-08-16T22:36:36.288Z,9.73
2022-08-16T22:41:38.295Z,12.33
2022-08-16T22:46:40.013Z,9.60
2022-08-16T22:51:41.858Z,14.43
2022-08-16T22:56:44.392Z,9.80
2022-08-16T23:01:46.103Z,10.77
2022-08-16T23:06:47.829Z,10.40
2022-08-16T23:11:49.498Z,10.70
2022-08-16T23:16:51.153Z,11.30
2022-08-16T23:21:53.060Z,20.80
2022-08-16T23:26:54.738Z,12.70
2022-08-16T23:31:58.376Z,10.30
2022-08-16T23:37:00.155Z,10.70
2022-08-16T23:42:01.913Z,12.70
2022-08-16T23:47:05.011Z,10.17
2022-08-16T23:52:07.700Z,11.60
2022-08-16T23:57:09.365Z,10.47
